Terminal Aerodrome Forecast
Issued by NWS

Home | Current Version | Previous Version | Text Only | Print | Product List | Glossary On
Versions: 1 2 3 4 5 6 7 8 9 10 11 12 13 14 15 16 17 18 19 20 21 22 23 24 25 26
000
FTUS45 KRIW 271700
TAFPNA
TAF
KPNA 271720Z 2718/2818 VRB05KT P6SM VCSH SCT050 BKN080
     FM272200 VRB10G16KT P6SM VCTS SCT035 BKN060CB
     FM280200 31006KT P6SM SCT030 BKN050
     FM281000 VRB04KT P6SM VCFG SCT003 SCT015
     FM281300 VRB04KT P6SM SCT030
      AMD LTD TO CLD VIS AND WIND=

USA.gov is the U.S. government's official web portal to all federal, state and local government web resources and services.